Observation data for Northfield on 06/24/2019      Previous  Date       Current Mesonet Observations  Soil Data  Daily Summary Page  Observations in Plain Language
KNOR 240500Z 10004KT 22/14 A2987 RMK A01 T02220142  RH  063%=      5-min Rain = 0
KNOR 240505Z 11004KT 22/14 A2987 RMK A01 T02220142  RH  063%=      5-min Rain = 0
KNOR 240510Z 09003KT 22/14 A2988 RMK A01 T02220142  RH  063%=      5-min Rain = 0
KNOR 240515Z 07004KT 22/14 A2988 RMK A01 T02200143  RH  064%=      5-min Rain = 0
KNOR 240520Z 06004KT 22/14 A2989 RMK A01 T02160143  RH  066%=      5-min Rain = 0
KNOR 240525Z 05005KT 21/14 A2989 RMK A01 T02110144  RH  068%=      5-min Rain = 0
KNOR 240530Z 05005KT 21/14 A2989 RMK A01 T02100143  RH  069%=      5-min Rain = 0
KNOR 240535Z 05004KT 21/14 A2989 RMK A01 T02100143  RH  068%=      5-min Rain = 0
KNOR 240540Z 06004KT 21/14 A2989 RMK A01 T02130142  RH  067%=      5-min Rain = 0
KNOR 240545Z 04004KT 21/14 A2989 RMK A01 T02120142  RH  067%=      5-min Rain = 0
KNOR 240550Z 04003KT 21/14 A2989 RMK A01 T02100143  RH  068%=      5-min Rain = 0
KNOR 240555Z 05003KT 21/14 A2989 RMK A01 T02130142  RH  067%=      5-min Rain = 0
KNOR 240600Z 04003KT 21/14 A2989 RMK A01 T02120142  RH  067%=      5-min Rain = 0
KNOR 240605Z 04004KT 21/14 A2989 RMK A01 T02100143  RH  068%=      5-min Rain = 0
KNOR 240610Z 03004KT 21/14 A2989 RMK A01 T02070143  RH  070%=      5-min Rain = 0
KNOR 240615Z 02006KT 21/14 A299 RMK A01 T02050143  RH  071%=      5-min Rain = 0
KNOR 240620Z 02005KT 20/14 A299 RMK A01 T02040143  RH  071%=      5-min Rain = 0
KNOR 240625Z 02005KT 21/14 A299 RMK A01 T02050143  RH  071%=      5-min Rain = 0
KNOR 240630Z 02005KT 20/14 A299 RMK A01 T02030143  RH  072%=      5-min Rain = 0
KNOR 240635Z 03005KT 20/14 A2991 RMK A01 T02030143  RH  072%=      5-min Rain = 0
KNOR 240640Z 03006KT 20/14 A2991 RMK A01 T02020143  RH  072%=      5-min Rain = 0
KNOR 240645Z 03005KT 20/14 A2991 RMK A01 T02000143  RH  073%=      5-min Rain = 0
KNOR 240650Z 03005KT 20/14 A2991 RMK A01 T01990144  RH  073%=      5-min Rain = 0
KNOR 240655Z 02007KT 20/14 A2992 RMK A01 T01980144  RH  074%=      5-min Rain = 0
KNOR 240700Z 03005KT 20/15 A2992 RMK A01 T01970145  RH  075%=      5-min Rain = 0
KNOR 240705Z 04006KT 20/14 A2992 RMK A01 T01960144  RH  075%=      5-min Rain = 0
KNOR 240710Z 03006KT 20/14 A2992 RMK A01 T01960144  RH  075%=      5-min Rain = 0
KNOR 240715Z 02006KT 20/15 A2992 RMK A01 T01950145  RH  076%=      5-min Rain = 0
KNOR 240720Z 02006KT 19/15 A2992 RMK A01 T01940145  RH  077%=      5-min Rain = 0
KNOR 240725Z 02006KT 19/15 A2992 RMK A01 T01930145  RH  077%=      5-min Rain = 0
KNOR 240730Z 02006KT 19/15 A2992 RMK A01 T01930145  RH  077%=      5-min Rain = 0
KNOR 240735Z 03005KT 19/15 A2993 RMK A01 T01930145  RH  077%=      5-min Rain = 0
KNOR 240740Z 03005KT 19/15 A2993 RMK A01 T01930145  RH  077%=      5-min Rain = 0
KNOR 240745Z 03005KT 19/15 A2993 RMK A01 T01910145  RH  078%=      5-min Rain = 0
KNOR 240750Z 03006KT 19/15 A2993 RMK A01 T01900145  RH  079%=      5-min Rain = 0
KNOR 240755Z 03007KT 19/15 A2993 RMK A01 T01890145  RH  079%=      5-min Rain = 0
KNOR 240800Z 03007KT 19/15 A2993 RMK A01 T01910145  RH  078%=      5-min Rain = 0
KNOR 240805Z 03007KT 19/15 A2993 RMK A01 T01920145  RH  077%=      5-min Rain = 0
KNOR 240810Z 03007KT 19/14 A2993 RMK A01 T01920142  RH  076%=      5-min Rain = 0
KNOR 240815Z 04006KT 19/14 A2993 RMK A01 T01910141  RH  076%=      5-min Rain = 0
KNOR 240820Z 04005KT 19/14 A2993 RMK A01 T01890140  RH  076%=      5-min Rain = 0
KNOR 240825Z 04005KT 19/14 A2993 RMK A01 T01880140  RH  077%=      5-min Rain = 0
KNOR 240830Z 03005KT 19/14 A2993 RMK A01 T01860139  RH  077%=      5-min Rain = 0
KNOR 240835Z 03005KT 18/14 A2993 RMK A01 T01840139  RH  078%=      5-min Rain = 0
KNOR 240840Z 05005KT 18/14 A2993 RMK A01 T01830138  RH  078%=      5-min Rain = 0
KNOR 240845Z 04006KT 18/14 A2993 RMK A01 T01810138  RH  079%=      5-min Rain = 0
KNOR 240850Z 04006KT 18/14 A2993 RMK A01 T01810138  RH  079%=      5-min Rain = 0
KNOR 240855Z 04005KT 18/14 A2993 RMK A01 T01810137  RH  079%=      5-min Rain = 0
KNOR 240900Z 05005KT 18/14 A2993 RMK A01 T01800137  RH  079%=      5-min Rain = 0
KNOR 240905Z 06004KT 18/14 A2994 RMK A01 T01780137  RH  080%=      5-min Rain = 0
KNOR 240910Z 05004KT 18/14 A2994 RMK A01 T01770137  RH  080%=      5-min Rain = 0
KNOR 240915Z 05004KT 18/14 A2994 RMK A01 T01770136  RH  080%=      5-min Rain = 0
KNOR 240920Z 05005KT 18/14 A2994 RMK A01 T01770136  RH  080%=      5-min Rain = 0
KNOR 240925Z 04004KT 18/14 A2994 RMK A01 T01750136  RH  081%=      5-min Rain = 0
KNOR 240930Z 02004KT 17/14 A2994 RMK A01 T01740136  RH  081%=      5-min Rain = 0
KNOR 240935Z 02005KT 17/14 A2994 RMK A01 T01740136  RH  082%=      5-min Rain = 0
KNOR 240940Z 02004KT 18/14 A2994 RMK A01 T01750136  RH  081%=      5-min Rain = 0
KNOR 240945Z 01005KT 18/14 A2994 RMK A01 T01750135  RH  081%=      5-min Rain = 0
KNOR 240950Z 01005KT 17/14 A2995 RMK A01 T01740135  RH  081%=      5-min Rain = 0
KNOR 240955Z 36005KT 17/13 A2995 RMK A01 T01730134  RH  081%=      5-min Rain = 0
KNOR 241000Z 35004KT 17/13 A2995 RMK A01 T01730134  RH  081%=      5-min Rain = 0
KNOR 241005Z 34003KT 17/14 A2995 RMK A01 T01730135  RH  082%=      5-min Rain = 0
KNOR 241010Z 35002KT 18/14 A2995 RMK A01 T01760136  RH  081%=      5-min Rain = 0
KNOR 241015Z 35002KT 18/14 A2995 RMK A01 T01770136  RH  080%=      5-min Rain = 0
KNOR 241020Z 34003KT 18/14 A2995 RMK A01 T01760135  RH  080%=      5-min Rain = 0
KNOR 241025Z 35003KT 17/14 A2995 RMK A01 T01740135  RH  081%=      5-min Rain = 0
KNOR 241030Z 34003KT 18/14 A2996 RMK A01 T01760135  RH  080%=      5-min Rain = 0
KNOR 241035Z 35003KT 18/14 A2996 RMK A01 T01760135  RH  080%=      5-min Rain = 0
KNOR 241040Z 36004KT 18/13 A2996 RMK A01 T01770134  RH  079%=      5-min Rain = 0
KNOR 241045Z 00005KT 17/13 A2995 RMK A01 T01720131  RH  079%=      5-min Rain = 0
KNOR 241050Z 36005KT 17/13 A2996 RMK A01 T01700129  RH  080%=      5-min Rain = 0
KNOR 241055Z 01004KT 17/13 A2996 RMK A01 T01700129  RH  080%=      5-min Rain = 0
KNOR 241100Z 02005KT 17/13 A2996 RMK A01 T01710128  RH  079%=      5-min Rain = 0
KNOR 241105Z 03004KT 17/13 A2996 RMK A01 T01710127  RH  078%=      5-min Rain = 0
KNOR 241110Z 03004KT 17/13 A2996 RMK A01 T01710126  RH  078%=      5-min Rain = 0
KNOR 241115Z 03005KT 17/13 A2996 RMK A01 T01700126  RH  078%=      5-min Rain = 0
KNOR 241120Z 02005KT 17/13 A2997 RMK A01 T01690125  RH  078%=      5-min Rain = 0
KNOR 241125Z 02005KT 17/13 A2997 RMK A01 T01690125  RH  078%=      5-min Rain = 0
KNOR 241130Z 01004KT 17/12 A2997 RMK A01 T01670124  RH  079%=      5-min Rain = 0
KNOR 241135Z 01004KT 17/12 A2997 RMK A01 T01670124  RH  078%=      5-min Rain = 0
KNOR 241140Z 00004KT 17/12 A2997 RMK A01 T01660123  RH  078%=      5-min Rain = 0
KNOR 241145Z 36004KT 17/12 A2997 RMK A01 T01670122  RH  078%=      5-min Rain = 0
KNOR 241150Z 35004KT 17/12 A2997 RMK A01 T01670122  RH  078%=      5-min Rain = 0
KNOR 241155Z 33003KT 17/12 A2997 RMK A01 T01680122  RH  078%=      5-min Rain = 0
KNOR 241200Z 34003KT 17/12 A2998 RMK A01 T01700124  RH  077%=      5-min Rain = 0
KNOR 241205Z 33002KT 17/12 A2998 RMK A01 T01710124  RH  077%=      5-min Rain = 0
KNOR 241210Z 32003KT 17/12 A2998 RMK A01 T01690123  RH  077%=      5-min Rain = 0
KNOR 241215Z 31003KT 17/12 A2998 RMK A01 T01650124  RH  079%=      5-min Rain = 0
KNOR 241220Z 32003KT 17/13 A2998 RMK A01 T01660125  RH  080%=      5-min Rain = 0
KNOR 241225Z 33004KT 17/13 A2998 RMK A01 T01690127  RH  080%=      5-min Rain = 0
KNOR 241230Z 32004KT 17/13 A2998 RMK A01 T01660126  RH  080%=      5-min Rain = 0
KNOR 241235Z 31002KT 17/13 A2999 RMK A01 T01720128  RH  078%=      5-min Rain = 0
KNOR 241240Z 31002KT 18/13 A2999 RMK A01 T01790125  RH  073%=      5-min Rain = 0
KNOR 241245Z 31002KT 18/13 A2999 RMK A01 T01790127  RH  074%=      5-min Rain = 0
KNOR 241250Z 33003KT 18/13 A2999 RMK A01 T01790127  RH  075%=      5-min Rain = 0
KNOR 241255Z 33002KT 18/13 A2999 RMK A01 T01800132  RH  077%=      5-min Rain = 0
KNOR 241300Z 33002KT 19/13 A2999 RMK A01 T01870131  RH  073%=      5-min Rain = 0
KNOR 241305Z 34004KT 19/12 A2999 RMK A01 T01910124  RH  068%=      5-min Rain = 0
KNOR 241310Z 34005KT 19/12 A2999 RMK A01 T01920123  RH  067%=      5-min Rain = 0
KNOR 241315Z 35006KT 20/12 A2999 RMK A01 T01960119  RH  063%=      5-min Rain = 0
KNOR 241320Z 34005KT 20/12 A2999 RMK A01 T01990119  RH  062%=      5-min Rain = 0
KNOR 241325Z 34004KT 20/12 A2999 RMK A01 T02040119  RH  061%=      5-min Rain = 0
KNOR 241330Z 34005KT 21/12 A30 RMK A01 T02060117  RH  059%=      5-min Rain = 0
KNOR 241335Z 36005KT 21/12 A30 RMK A01 T02060117  RH  059%=      5-min Rain = 0
KNOR 241340Z 36006KT 21/12 A2999 RMK A01 T02070116  RH  058%=      5-min Rain = 0
KNOR 241345Z 36006KT 21/12 A2999 RMK A01 T02120116  RH  056%=      5-min Rain = 0
KNOR 241350Z 00007KT 22/12 A2999 RMK A01 T02170117  RH  055%=      5-min Rain = 0
KNOR 241355Z 01008KT 22/11 A2999 RMK A01 T02210114  RH  052%=      5-min Rain = 0
KNOR 241400Z 02007KT 22/11 A2999 RMK A01 T02240112  RH  051%=      5-min Rain = 0
KNOR 241405Z 01008KT 23/11 A2999 RMK A01 T02250109  RH  049%=      5-min Rain = 0
KNOR 241410Z 02008KT 23/11 A2999 RMK A01 T02290109  RH  048%=      5-min Rain = 0
KNOR 241415Z 02008KT 23/11 A30 RMK A01 T02290105  RH  047%=      5-min Rain = 0
KNOR 241420Z 02007KT 23/11 A30 RMK A01 T02340107  RH  046%=      5-min Rain = 0
KNOR 241425Z 03008KT 23/10 A30 RMK A01 T02330104  RH  046%=      5-min Rain = 0
KNOR 241430Z 02009KT 24/10 A30 RMK A01 T02370104  RH  045%=      5-min Rain = 0
KNOR 241435Z 03008KT 24/10 A30 RMK A01 T02360103  RH  044%=      5-min Rain = 0
KNOR 241440Z 04007KT 24/11 A30 RMK A01 T02370105  RH  045%=      5-min Rain = 0
KNOR 241445Z 04007KT 24/11 A30 RMK A01 T02410105  RH  044%=      5-min Rain = 0
KNOR 241450Z 05006KT 24/11 A3001 RMK A01 T02440107  RH  043%=      5-min Rain = 0
KNOR 241455Z 04006KT 24/11 A30 RMK A01 T02440105  RH  043%=      5-min Rain = 0
KNOR 241500Z 05007KT 25/11 A30 RMK A01 T02470106  RH  043%=      5-min Rain = 0
KNOR 241505Z 06007KT 25/11 A30 RMK A01 T02460106  RH  043%=      5-min Rain = 0
KNOR 241510Z 05006KT 25/11 A30 RMK A01 T02470105  RH  042%=      5-min Rain = 0
KNOR 241515Z 05006KT 25/11 A30 RMK A01 T02490105  RH  042%=      5-min Rain = 0
KNOR 241520Z 04006KT 25/11 A30 RMK A01 T02520106  RH  041%=      5-min Rain = 0
KNOR 241525Z 04005KT 25/11 A30 RMK A01 T02530107  RH  041%=      5-min Rain = 0
KNOR 241530Z 07006KT 25/11 A30 RMK A01 T02540108  RH  041%=      5-min Rain = 0
KNOR 241535Z 07005KT 26/11 A30 RMK A01 T02590112  RH  041%=      5-min Rain = 0
KNOR 241540Z 08006KT 26/11 A30 RMK A01 T02560109  RH  041%=      5-min Rain = 0
KNOR 241545Z 09005KT 26/11 A30 RMK A01 T02570112  RH  041%=      5-min Rain = 0
KNOR 241550Z 07007KT 26/11 A30 RMK A01 T02600113  RH  041%=      5-min Rain = 0
KNOR 241555Z 09006KT 26/11 A30 RMK A01 T02590113  RH  041%=      5-min Rain = 0
KNOR 241600Z 07005KT 26/11 A2999 RMK A01 T02630114  RH  041%=      5-min Rain = 0
KNOR 241605Z 10006KT 26/11 A2999 RMK A01 T02610112  RH  041%=      5-min Rain = 0
KNOR 241610Z 11005KT 26/11 A2999 RMK A01 T02630113  RH  041%=      5-min Rain = 0
KNOR 241615Z 08005KT 27/11 A2999 RMK A01 T02670113  RH  040%=      5-min Rain = 0
KNOR 241620Z 11005KT 27/11 A2999 RMK A01 T02660114  RH  040%=      5-min Rain = 0
KNOR 241625Z 12006KT 27/11 A2999 RMK A01 T02670112  RH  039%=      5-min Rain = 0
KNOR 241630Z 12006KT 27/11 A2999 RMK A01 T02670109  RH  039%=      5-min Rain = 0
KNOR 241635Z 11006KT 27/11 A2999 RMK A01 T02700109  RH  038%=      5-min Rain = 0
KNOR 241640Z 10005KT 27/11 A2999 RMK A01 T02740111  RH  038%=      5-min Rain = 0
KNOR 241645Z 08007KT 28/11 A2999 RMK A01 T02770111  RH  037%=      5-min Rain = 0
KNOR 241650Z 09005G10KT 28/11 A2999 RMK A01 T02750111  RH  037%=      5-min Rain = 0
KNOR 241655Z 11005KT 28/11 A2999 RMK A01 T02750109  RH  037%=      5-min Rain = 0
KNOR 241700Z 11004KT 28/11 A2999 RMK A01 T02770111  RH  037%=      5-min Rain = 0
KNOR 241705Z 10005G10KT 28/11 A2999 RMK A01 T02790112  RH  037%=      5-min Rain = 0
KNOR 241710Z 07007KT 28/11 A2999 RMK A01 T02810111  RH  036%=      5-min Rain = 0
KNOR 241715Z 09005G10KT 28/11 A2998 RMK A01 T02830113  RH  036%=      5-min Rain = 0
KNOR 241720Z 11004KT 29/12 A2998 RMK A01 T02870115  RH  036%=      5-min Rain = 0
KNOR 241725Z 11005KT 28/12 A2998 RMK A01 T02830115  RH  036%=      5-min Rain = 0
KNOR 241730Z 13006KT 28/11 A2998 RMK A01 T02830112  RH  036%=      5-min Rain = 0
KNOR 241735Z 13005G10KT 29/12 A2998 RMK A01 T02870116  RH  036%=      5-min Rain = 0
KNOR 241740Z 09005G11KT 29/12 A2997 RMK A01 T02860117  RH  036%=      5-min Rain = 0
KNOR 241745Z 07007KT 29/11 A2997 RMK A01 T02870113  RH  035%=      5-min Rain = 0
KNOR 241750Z 08006G11KT 29/11 A2997 RMK A01 T02850109  RH  035%=      5-min Rain = 0
KNOR 241755Z 09005KT 29/11 A2997 RMK A01 T02860107  RH  034%=      5-min Rain = 0
KNOR 241800Z 11005G10KT 29/11 A2996 RMK A01 T02920112  RH  034%=      5-min Rain = 0
KNOR 241805Z 12005KT 29/11 A2996 RMK A01 T02930109  RH  033%=      5-min Rain = 0
KNOR 241810Z 10007G12KT 29/11 A2996 RMK A01 T02940108  RH  033%=      5-min Rain = 0
KNOR 241815Z 08005KT 30/11 A2996 RMK A01 T02960112  RH  033%=      5-min Rain = 0
KNOR 241820Z 09006G11KT 30/11 A2996 RMK A01 T02960109  RH  033%=      5-min Rain = 0
KNOR 241825Z 08009G14KT 30/11 A2996 RMK A01 T02980112  RH  033%=      5-min Rain = 0
KNOR 241830Z 08006G11KT 30/11 A2995 RMK A01 T02970112  RH  033%=      5-min Rain = 0
KNOR 241835Z 08006KT 30/11 A2995 RMK A01 T02990112  RH  033%=      5-min Rain = 0
KNOR 241840Z 13008G15KT 30/11 A2995 RMK A01 T02990111  RH  032%=      5-min Rain = 0
KNOR 241845Z 11006KT 30/11 A2995 RMK A01 T02990111  RH  033%=      5-min Rain = 0
KNOR 241850Z 13009KT 30/11 A2995 RMK A01 T03000105  RH  031%=      5-min Rain = 0
KNOR 241855Z 12008G13KT 30/11 A2995 RMK A01 T03020109  RH  031%=      5-min Rain = 0
KNOR 241900Z 11007G13KT 30/11 A2995 RMK A01 T03020107  RH  031%=      5-min Rain = 0
KNOR 241905Z 10007G15KT 30/10 A2995 RMK A01 T03030104  RH  030%=      5-min Rain = 0
KNOR 241910Z 12007G14KT 31/11 A2994 RMK A01 T03080110  RH  031%=      5-min Rain = 0
KNOR 241915Z 12009G14KT 31/11 A2994 RMK A01 T03070106  RH  030%=      5-min Rain = 0
KNOR 241920Z 11005KT 30/11 A2994 RMK A01 T03040109  RH  031%=      5-min Rain = 0
KNOR 241925Z 14009KT 31/11 A2994 RMK A01 T03070106  RH  030%=      5-min Rain = 0
KNOR 241930Z 15007G13KT 31/11 A2994 RMK A01 T03090108  RH  030%=      5-min Rain = 0
KNOR 241935Z 14009G15KT 31/11 A2994 RMK A01 T03100110  RH  030%=      5-min Rain = 0
KNOR 241940Z 14008G15KT 31/11 A2994 RMK A01 T03080106  RH  030%=      5-min Rain = 0
KNOR 241945Z 09009G14KT 31/11 A2994 RMK A01 T03080106  RH  030%=      5-min Rain = 0
KNOR 241950Z 10006KT 31/11 A2994 RMK A01 T03100109  RH  030%=      5-min Rain = 0
KNOR 241955Z 11009G17KT 31/11 A2993 RMK A01 T03130108  RH  029%=      5-min Rain = 0
KNOR 242000Z 12007G13KT 31/11 A2993 RMK A01 T03120108  RH  030%=      5-min Rain = 0
KNOR 242005Z 14009KT 31/11 A2993 RMK A01 T03110110  RH  030%=      5-min Rain = 0
KNOR 242010Z 13008KT 31/11 A2993 RMK A01 T03130111  RH  030%=      5-min Rain = 0
KNOR 242015Z 13009G14KT 31/11 A2993 RMK A01 T03120109  RH  030%=      5-min Rain = 0
KNOR 242020Z 13007KT 31/11 A2993 RMK A01 T03110107  RH  029%=      5-min Rain = 0
KNOR 242025Z 14009G15KT 32/11 A2993 RMK A01 T03150110  RH  030%=      5-min Rain = 0
KNOR 242030Z 15010KT 31/11 A2992 RMK A01 T03140108  RH  029%=      5-min Rain = 0
KNOR 242035Z 13006G11KT 32/11 A2992 RMK A01 T03170109  RH  029%=      5-min Rain = 0
KNOR 242040Z 14005G13KT 32/11 A2992 RMK A01 T03170109  RH  029%=      5-min Rain = 0
KNOR 242045Z 13009G14KT 32/11 A2992 RMK A01 T03160109  RH  029%=      5-min Rain = 0
KNOR 242050Z 14009G14KT 32/11 A2992 RMK A01 T03160109  RH  029%=      5-min Rain = 0
KNOR 242055Z 14008KT 32/11 A2992 RMK A01 T03180108  RH  029%=      5-min Rain = 0
KNOR 242100Z 15006KT 32/11 A2992 RMK A01 T03170109  RH  029%=      5-min Rain = 0
KNOR 242105Z 13008G13KT 32/12 A2991 RMK A01 T03200115  RH  030%=      5-min Rain = 0
KNOR 242110Z 15011KT 32/11 A2991 RMK A01 T03200112  RH  029%=      5-min Rain = 0
KNOR 242115Z 12007G13KT 32/11 A2991 RMK A01 T03170110  RH  029%=      5-min Rain = 0
KNOR 242120Z 12007KT 32/11 A2991 RMK A01 T03160110  RH  029%=      5-min Rain = 0
KNOR 242125Z 13009KT 32/11 A2991 RMK A01 T03180112  RH  029%=      5-min Rain = 0
KNOR 242130Z 15009KT 32/11 A299 RMK A01 T03170113  RH  030%=      5-min Rain = 0
KNOR 242135Z 15009G15KT 32/11 A299 RMK A01 T03200114  RH  029%=      5-min Rain = 0
KNOR 242140Z 13010KT 32/11 A299 RMK A01 T03170114  RH  030%=      5-min Rain = 0
KNOR 242145Z 15008G16KT 32/11 A299 RMK A01 T03170114  RH  030%=      5-min Rain = 0
KNOR 242150Z 13011KT 32/12 A299 RMK A01 T03180115  RH  030%=      5-min Rain = 0
KNOR 242155Z 13007KT 32/12 A299 RMK A01 T03180115  RH  030%=      5-min Rain = 0
KNOR 242200Z 16009KT 32/11 A299 RMK A01 T03180114  RH  030%=      5-min Rain = 0
KNOR 242205Z 14009G15KT 32/12 A2989 RMK A01 T03160116  RH  030%=      5-min Rain = 0
KNOR 242210Z 14008G13KT 32/12 A2989 RMK A01 T03170119  RH  031%=      5-min Rain = 0
KNOR 242215Z 15010KT 32/12 A2989 RMK A01 T03170120  RH  031%=      5-min Rain = 0
KNOR 242220Z 13010G15KT 32/12 A2989 RMK A01 T03160118  RH  031%=      5-min Rain = 0
KNOR 242225Z 14010G15KT 32/12 A2989 RMK A01 T03160120  RH  031%=      5-min Rain = 0
KNOR 242230Z 15008KT 32/12 A2989 RMK A01 T03160123  RH  032%=      5-min Rain = 0
KNOR 242235Z 16010KT 32/12 A2988 RMK A01 T03170119  RH  031%=      5-min Rain = 0
KNOR 242240Z 13009G15KT 32/12 A2988 RMK A01 T03150119  RH  031%=      5-min Rain = 0
KNOR 242245Z 12009KT 31/12 A2988 RMK A01 T03130118  RH  031%=      5-min Rain = 0
KNOR 242250Z 12009KT 31/12 A2988 RMK A01 T03130121  RH  032%=      5-min Rain = 0
KNOR 242255Z 14007KT 32/12 A2988 RMK A01 T03150123  RH  032%=      5-min Rain = 0
KNOR 242300Z 13008G14KT 31/13 A2988 RMK A01 T03140125  RH  033%=      5-min Rain = 0
KNOR 242305Z 14009KT 31/13 A2988 RMK A01 T03140129  RH  034%=      5-min Rain = 0
KNOR 242310Z 15008KT 31/13 A2988 RMK A01 T03140130  RH  034%=      5-min Rain = 0
KNOR 242315Z 14009G16KT 31/13 A2988 RMK A01 T03130130  RH  034%=      5-min Rain = 0
KNOR 242320Z 15007G12KT 32/13 A2988 RMK A01 T03150134  RH  035%=      5-min Rain = 0
KNOR 242325Z 16010KT 31/13 A2988 RMK A01 T03140131  RH  034%=      5-min Rain = 0
KNOR 242330Z 13010KT 31/13 A2987 RMK A01 T03110131  RH  035%=      5-min Rain = 0
KNOR 242335Z 13008KT 31/13 A2988 RMK A01 T03090133  RH  036%=      5-min Rain = 0
KNOR 242340Z 14006KT 31/14 A2988 RMK A01 T03110136  RH  036%=      5-min Rain = 0
KNOR 242345Z 14007G13KT 31/14 A2987 RMK A01 T03120137  RH  036%=      5-min Rain = 0
KNOR 242350Z 13010KT 31/14 A2987 RMK A01 T03050135  RH  037%=      5-min Rain = 0
KNOR 242355Z 15008KT 30/14 A2987 RMK A01 T03000139  RH  039%=      5-min Rain = 0
KNOR 250000Z 13008KT 31/14 A2987 RMK A01 T03070141  RH  038%=      5-min Rain = 0
KNOR 250005Z 14008G14KT 31/14 A2987 RMK A01 T03080143  RH  038%=      5-min Rain = 0
KNOR 250010Z 13010KT 31/14 A2987 RMK A01 T03050139  RH  038%=      5-min Rain = 0
KNOR 250015Z 13008KT 31/14 A2987 RMK A01 T03050141  RH  038%=      5-min Rain = 0
KNOR 250020Z 14009G14KT 30/14 A2987 RMK A01 T03040139  RH  038%=      5-min Rain = 0
KNOR 250025Z 14010G15KT 30/14 A2987 RMK A01 T03030137  RH  038%=      5-min Rain = 0
KNOR 250030Z 13010KT 30/13 A2988 RMK A01 T03000134  RH  038%=      5-min Rain = 0
KNOR 250035Z 13008KT 30/14 A2988 RMK A01 T03000137  RH  039%=      5-min Rain = 0
KNOR 250040Z 13010KT 30/13 A2988 RMK A01 T02980133  RH  038%=      5-min Rain = 0
KNOR 250045Z 12009KT 30/13 A2987 RMK A01 T02960134  RH  039%=      5-min Rain = 0
KNOR 250050Z 12009KT 30/13 A2987 RMK A01 T02950134  RH  039%=      5-min Rain = 0
KNOR 250055Z 13010G16KT 29/14 A2987 RMK A01 T02940135  RH  039%=      5-min Rain = 0
KNOR 250100Z 14011KT 29/14 A2988 RMK A01 T02920136  RH  040%=      5-min Rain = 0
KNOR 250105Z 13011KT 29/14 A2988 RMK A01 T02920137  RH  040%=      5-min Rain = 0
KNOR 250110Z 13010G15KT 29/14 A2989 RMK A01 T02900140  RH  041%=      5-min Rain = 0
KNOR 250115Z 13009G14KT 29/14 A2989 RMK A01 T02890139  RH  042%=      5-min Rain = 0
KNOR 250120Z 13009KT 29/14 A299 RMK A01 T02870140  RH  042%=      5-min Rain = 0
KNOR 250125Z 14009KT 29/14 A299 RMK A01 T02850141  RH  043%=      5-min Rain = 0
KNOR 250130Z 14010KT 28/14 A299 RMK A01 T02830141  RH  044%=      5-min Rain = 0
KNOR 250135Z 13010KT 28/14 A299 RMK A01 T02810141  RH  044%=      5-min Rain = 0
KNOR 250140Z 13009G14KT 28/14 A299 RMK A01 T02790142  RH  045%=      5-min Rain = 0
KNOR 250145Z 12008KT 28/14 A2989 RMK A01 T02760143  RH  046%=      5-min Rain = 0
KNOR 250150Z 12008G13KT 28/14 A2989 RMK A01 T02750144  RH  047%=      5-min Rain = 0
KNOR 250155Z 12008KT 27/14 A2989 RMK A01 T02730144  RH  047%=      5-min Rain = 0
KNOR 250200Z 12008KT 27/15 A299 RMK A01 T02710145  RH  048%=      5-min Rain = 0
KNOR 250205Z 11008KT 27/15 A2989 RMK A01 T02700146  RH  049%=      5-min Rain = 0
KNOR 250210Z 11007KT 27/15 A2989 RMK A01 T02690147  RH  049%=      5-min Rain = 0
KNOR 250215Z 11008KT 27/15 A2989 RMK A01 T02680148  RH  050%=      5-min Rain = 0
KNOR 250220Z 12008KT 27/15 A299 RMK A01 T02660149  RH  051%=      5-min Rain = 0
KNOR 250225Z 12008KT 27/15 A299 RMK A01 T02650150  RH  051%=      5-min Rain = 0
KNOR 250230Z 12008KT 27/15 A299 RMK A01 T02650150  RH  052%=      5-min Rain = 0
KNOR 250235Z 12009KT 26/15 A299 RMK A01 T02640150  RH  052%=      5-min Rain = 0
KNOR 250240Z 11009KT 26/15 A299 RMK A01 T02640150  RH  052%=      5-min Rain = 0
KNOR 250245Z 11008G13KT 26/15 A299 RMK A01 T02630150  RH  052%=      5-min Rain = 0
KNOR 250250Z 11010KT 26/15 A299 RMK A01 T02620150  RH  052%=      5-min Rain = 0
KNOR 250255Z 11009KT 26/15 A299 RMK A01 T02620152  RH  053%=      5-min Rain = 0
KNOR 250300Z 11009KT 26/15 A299 RMK A01 T02610153  RH  054%=      5-min Rain = 0
KNOR 250305Z 11009KT 26/15 A299 RMK A01 T02600154  RH  054%=      5-min Rain = 0
KNOR 250310Z 11009G15KT 26/16 A299 RMK A01 T02590155  RH  055%=      5-min Rain = 0
KNOR 250315Z 11009G14KT 26/16 A299 RMK A01 T02580155  RH  055%=      5-min Rain = 0
KNOR 250320Z 11009G14KT 26/16 A299 RMK A01 T02580155  RH  056%=      5-min Rain = 0
KNOR 250325Z 10008KT 26/16 A299 RMK A01 T02570156  RH  056%=      5-min Rain = 0
KNOR 250330Z 10008G14KT 26/16 A299 RMK A01 T02560157  RH  057%=      5-min Rain = 0
KNOR 250335Z 11007KT 26/16 A2991 RMK A01 T02550158  RH  058%=      5-min Rain = 0
KNOR 250340Z 11006KT 25/16 A2991 RMK A01 T02530159  RH  059%=      5-min Rain = 0
KNOR 250345Z 10007KT 25/16 A2991 RMK A01 T02530160  RH  059%=      5-min Rain = 0
KNOR 250350Z 11007KT 25/16 A2991 RMK A01 T02520161  RH  060%=      5-min Rain = 0
KNOR 250355Z 11007KT 25/16 A2991 RMK A01 T02500162  RH  061%=      5-min Rain = 0
KNOR 250400Z 11008KT 25/16 A2992 RMK A01 T02500162  RH  061%=      5-min Rain = 0
KNOR 250405Z 11008KT 25/16 A2992 RMK A01 T02490163  RH  062%=      5-min Rain = 0
KNOR 250410Z 11008KT 25/16 A2992 RMK A01 T02490164  RH  062%=      5-min Rain = 0
KNOR 250415Z 11009KT 25/17 A2992 RMK A01 T02490165  RH  062%=      5-min Rain = 0
KNOR 250420Z 11009KT 25/17 A2992 RMK A01 T02490167  RH  063%=      5-min Rain = 0
KNOR 250425Z 11009G14KT 25/17 A2992 RMK A01 T02490169  RH  064%=      5-min Rain = 0
KNOR 250430Z 12010KT 25/17 A2992 RMK A01 T02480171  RH  065%=      5-min Rain = 0
KNOR 250435Z 12009G16KT 25/17 A2992 RMK A01 T02480172  RH  066%=      5-min Rain = 0
KNOR 250440Z 12011KT 25/17 A2992 RMK A01 T02470173  RH  067%=      5-min Rain = 0
KNOR 250445Z 12009G14KT 25/17 A2992 RMK A01 T02460174  RH  068%=      5-min Rain = 0
KNOR 250450Z 12010KT 25/18 A2992 RMK A01 T02450176  RH  069%=      5-min Rain = 0
KNOR 250455Z 12009KT 24/18 A2992 RMK A01 T02440177  RH  070%=      5-min Rain = 0

Page generated in 0.0092 seconds.